sensor_id;sensor_type;location;lat;lon;timestamp;P1;durP1;ratioP1;P2;durP2;ratioP2
16139;SDS011;8175;49.326;12.690;2023-02-12T08:03:03;82.37;;;25.00;;
16139;SDS011;8175;49.326;12.690;2023-02-12T08:05:28;107.67;;;24.87;;
16139;SDS011;8175;49.326;12.690;2023-02-12T08:07:54;84.97;;;24.47;;
16139;SDS011;8175;49.326;12.690;2023-02-12T08:10:20;103.00;;;27.03;;
16139;SDS011;8175;49.326;12.690;2023-02-12T08:12:47;92.63;;;27.17;;
16139;SDS011;8175;49.326;12.690;2023-02-12T08:15:13;101.10;;;25.50;;
16139;SDS011;8175;49.326;12.690;2023-02-12T08:17:38;52.47;;;21.07;;
16139;SDS011;8175;49.326;12.690;2023-02-12T08:20:06;59.07;;;21.73;;
16139;SDS011;8175;49.326;12.690;2023-02-12T08:22:32;69.33;;;23.07;;
16139;SDS011;8175;49.326;12.690;2023-02-12T08:24:57;54.60;;;21.03;;
16139;SDS011;8175;49.326;12.690;2023-02-12T08:27:23;45.13;;;21.30;;
16139;SDS011;8175;49.326;12.690;2023-02-12T08:29:49;51.10;;;24.20;;
16139;SDS011;8175;49.326;12.690;2023-02-12T08:32:14;54.17;;;24.50;;
16139;SDS011;8175;49.326;12.690;2023-02-12T08:34:41;66.13;;;26.10;;
16139;SDS011;8175;49.326;12.690;2023-02-12T08:37:06;56.03;;;24.83;;
16139;SDS011;8175;49.326;12.690;2023-02-12T08:39:32;52.93;;;23.53;;
16139;SDS011;8175;49.326;12.690;2023-02-12T08:41:58;50.63;;;23.47;;
16139;SDS011;8175;49.326;12.690;2023-02-12T08:44:25;54.43;;;23.60;;
16139;SDS011;8175;49.326;12.690;2023-02-12T08:46:51;47.47;;;22.07;;
16139;SDS011;8175;49.326;12.690;2023-02-12T08:49:20;47.17;;;21.57;;
16139;SDS011;8175;49.326;12.690;2023-02-12T08:51:49;38.67;;;20.27;;
16139;SDS011;8175;49.326;12.690;2023-02-12T08:54:17;38.70;;;20.83;;
16139;SDS011;8175;49.326;12.690;2023-02-12T08:56:45;34.63;;;18.83;;
16139;SDS011;8175;49.326;12.690;2023-02-12T08:59:11;32.77;;;17.67;;
16139;SDS011;8175;49.326;12.690;2023-02-12T09:01:39;31.87;;;17.73;;
16139;SDS011;8175;49.326;12.690;2023-02-12T09:04:05;32.33;;;17.23;;
16139;SDS011;8175;49.326;12.690;2023-02-12T09:06:32;32.67;;;17.07;;
16139;SDS011;8175;49.326;12.690;2023-02-12T09:08:59;28.50;;;17.43;;
16139;SDS011;8175;49.326;12.690;2023-02-12T09:11:26;36.30;;;18.17;;
16139;SDS011;8175;49.326;12.690;2023-02-12T09:13:56;35.40;;;19.30;;
16139;SDS011;8175;49.326;12.690;2023-02-12T09:16:24;37.90;;;18.87;;
16139;SDS011;8175;49.326;12.690;2023-02-12T09:18:50;28.13;;;15.10;;
16139;SDS011;8175;49.326;12.690;2023-02-12T09:21:16;30.53;;;17.50;;
16139;SDS011;8175;49.326;12.690;2023-02-12T09:23:43;31.33;;;17.30;;
16139;SDS011;8175;49.326;12.690;2023-02-12T09:26:10;32.93;;;16.50;;
16139;SDS011;8175;49.326;12.690;2023-02-12T09:28:39;33.87;;;17.80;;
16139;SDS011;8175;49.326;12.690;2023-02-12T09:31:10;29.63;;;17.03;;
16139;SDS011;8175;49.326;12.690;2023-02-12T09:33:37;27.30;;;15.53;;
16139;SDS011;8175;49.326;12.690;2023-02-12T09:36:04;25.00;;;15.47;;
16139;SDS011;8175;49.326;12.690;2023-02-12T09:38:32;25.27;;;14.00;;
16139;SDS011;8175;49.326;12.690;2023-02-12T09:49:08;28.43;;;15.97;;
16139;SDS011;8175;49.326;12.690;2023-02-12T09:51:40;25.00;;;13.53;;
16139;SDS011;8175;49.326;12.690;2023-02-12T09:54:13;26.10;;;15.83;;
16139;SDS011;8175;49.326;12.690;2023-02-12T09:56:51;25.90;;;15.30;;
16139;SDS011;8175;49.326;12.690;2023-02-12T09:59:34;24.63;;;14.03;;
16139;SDS011;8175;49.326;12.690;2023-02-12T10:02:14;20.30;;;12.63;;
16139;SDS011;8175;49.326;12.690;2023-02-12T10:04:45;22.90;;;13.50;;
16139;SDS011;8175;49.326;12.690;2023-02-12T10:07:33;21.40;;;13.20;;
16139;SDS011;8175;49.326;12.690;2023-02-12T10:12:53;19.17;;;12.73;;
16139;SDS011;8175;49.326;12.690;2023-02-12T10:20:53;25.50;;;15.57;;
16139;SDS011;8175;49.326;12.690;2023-02-12T10:26:23;25.10;;;15.57;;
16139;SDS011;8175;49.326;12.690;2023-02-12T10:28:58;24.73;;;14.67;;
16139;SDS011;8175;49.326;12.690;2023-02-12T10:31:34;26.07;;;14.30;;
16139;SDS011;8175;49.326;12.690;2023-02-12T10:34:10;24.53;;;15.33;;
16139;SDS011;8175;49.326;12.690;2023-02-12T10:36:42;49.53;;;30.90;;
16139;SDS011;8175;49.326;12.690;2023-02-12T10:39:19;24.50;;;15.80;;
16139;SDS011;8175;49.326;12.690;2023-02-12T10:42:25;36.80;;;22.10;;
16139;SDS011;8175;49.326;12.690;2023-02-12T10:45:04;22.90;;;14.47;;
16139;SDS011;8175;49.326;12.690;2023-02-12T10:47:36;49.93;;;33.20;;
16139;SDS011;8175;49.326;12.690;2023-02-12T10:50:02;50.33;;;33.33;;
16139;SDS011;8175;49.326;12.690;2023-02-12T10:58:00;23.23;;;13.87;;
16139;SDS011;8175;49.326;12.690;2023-02-12T11:00:34;30.37;;;20.10;;
16139;SDS011;8175;49.326;12.690;2023-02-12T11:05:37;26.97;;;18.70;;
16139;SDS011;8175;49.326;12.690;2023-02-12T11:08:06;28.43;;;19.50;;
16139;SDS011;8175;49.326;12.690;2023-02-12T11:10:35;23.73;;;14.50;;
16139;SDS011;8175;49.326;12.690;2023-02-12T11:13:04;22.13;;;14.23;;
16139;SDS011;8175;49.326;12.690;2023-02-12T11:15:37;20.80;;;13.67;;
16139;SDS011;8175;49.326;12.690;2023-02-12T11:18:19;23.20;;;13.93;;
16139;SDS011;8175;49.326;12.690;2023-02-12T11:20:50;21.93;;;16.23;;
16139;SDS011;8175;49.326;12.690;2023-02-12T11:23:36;25.37;;;15.83;;
16139;SDS011;8175;49.326;12.690;2023-02-12T11:26:19;20.50;;;13.40;;
16139;SDS011;8175;49.326;12.690;2023-02-12T11:34:08;19.40;;;12.10;;
16139;SDS011;8175;49.326;12.690;2023-02-12T11:36:40;33.33;;;18.53;;
16139;SDS011;8175;49.326;12.690;2023-02-12T11:39:13;20.07;;;12.93;;
16139;SDS011;8175;49.326;12.690;2023-02-12T11:41:42;21.07;;;13.50;;
16139;SDS011;8175;49.326;12.690;2023-02-12T11:44:09;20.53;;;13.37;;
16139;SDS011;8175;49.326;12.690;2023-02-12T11:46:37;18.40;;;13.20;;
16139;SDS011;8175;49.326;12.690;2023-02-12T11:49:04;19.33;;;13.17;;
16139;SDS011;8175;49.326;12.690;2023-02-12T11:51:33;19.00;;;12.87;;
16139;SDS011;8175;49.326;12.690;2023-02-12T11:54:02;22.30;;;14.13;;
16139;SDS011;8175;49.326;12.690;2023-02-12T11:56:40;20.60;;;13.97;;
16139;SDS011;8175;49.326;12.690;2023-02-12T11:59:10;18.73;;;13.60;;
16139;SDS011;8175;49.326;12.690;2023-02-12T12:01:45;18.57;;;13.53;;
16139;SDS011;8175;49.326;12.690;2023-02-12T12:04:13;21.73;;;13.33;;
16139;SDS011;8175;49.326;12.690;2023-02-12T12:06:48;20.13;;;13.00;;
16139;SDS011;8175;49.326;12.690;2023-02-12T12:09:43;16.97;;;12.23;;
16139;SDS011;8175;49.326;12.690;2023-02-12T12:12:20;17.03;;;13.13;;
16139;SDS011;8175;49.326;12.690;2023-02-12T12:14:59;18.77;;;12.53;;
16139;SDS011;8175;49.326;12.690;2023-02-12T12:17:54;18.57;;;12.07;;
16139;SDS011;8175;49.326;12.690;2023-02-12T12:20:48;16.27;;;10.80;;
16139;SDS011;8175;49.326;12.690;2023-02-12T12:23:20;14.60;;;10.63;;
16139;SDS011;8175;49.326;12.690;2023-02-12T12:25:54;16.23;;;11.50;;
16139;SDS011;8175;49.326;12.690;2023-02-12T12:28:35;21.73;;;14.80;;
16139;SDS011;8175;49.326;12.690;2023-02-12T12:31:40;20.27;;;14.60;;
16139;SDS011;8175;49.326;12.690;2023-02-12T12:34:06;17.93;;;13.37;;
16139;SDS011;8175;49.326;12.690;2023-02-12T12:36:48;19.17;;;14.90;;
16139;SDS011;8175;49.326;12.690;2023-02-12T12:39:32;19.57;;;12.53;;
16139;SDS011;8175;49.326;12.690;2023-02-12T12:47:33;18.57;;;13.27;;
16139;SDS011;8175;49.326;12.690;2023-02-12T12:50:47;16.07;;;10.23;;
16139;SDS011;8175;49.326;12.690;2023-02-12T13:09:36;11.43;;;8.00;;
16139;SDS011;8175;49.326;12.690;2023-02-12T13:28:37;21.10;;;12.87;;
16139;SDS011;8175;49.326;12.690;2023-02-12T13:31:06;25.23;;;16.23;;
16139;SDS011;8175;49.326;12.690;2023-02-12T13:36:09;19.63;;;12.67;;
16139;SDS011;8175;49.326;12.690;2023-02-12T13:38:38;21.67;;;13.50;;
16139;SDS011;8175;49.326;12.690;2023-02-12T13:41:28;21.87;;;14.97;;
16139;SDS011;8175;49.326;12.690;2023-02-12T13:49:12;17.23;;;10.90;;
16139;SDS011;8175;49.326;12.690;2023-02-12T13:52:27;13.70;;;9.23;;
16139;SDS011;8175;49.326;12.690;2023-02-12T13:57:33;15.63;;;10.57;;
16139;SDS011;8175;49.326;12.690;2023-02-12T13:59:58;15.07;;;9.83;;
16139;SDS011;8175;49.326;12.690;2023-02-12T14:05:01;13.53;;;9.17;;
16139;SDS011;8175;49.326;12.690;2023-02-12T14:07:40;12.77;;;8.47;;
16139;SDS011;8175;49.326;12.690;2023-02-12T14:13:19;12.43;;;8.77;;
16139;SDS011;8175;49.326;12.690;2023-02-12T14:15:49;10.70;;;7.50;;
16139;SDS011;8175;49.326;12.690;2023-02-12T14:23:40;14.63;;;9.43;;
16139;SDS011;8175;49.326;12.690;2023-02-12T14:26:21;12.97;;;8.80;;
16139;SDS011;8175;49.326;12.690;2023-02-12T14:33:51;14.90;;;9.60;;
16139;SDS011;8175;49.326;12.690;2023-02-12T14:36:44;13.27;;;8.37;;
16139;SDS011;8175;49.326;12.690;2023-02-12T14:41:51;13.13;;;8.80;;
16139;SDS011;8175;49.326;12.690;2023-02-12T15:03:24;13.20;;;8.00;;
16139;SDS011;8175;49.326;12.690;2023-02-12T15:08:23;14.63;;;8.57;;
16139;SDS011;8175;49.326;12.690;2023-02-12T15:11:13;15.47;;;9.40;;
16139;SDS011;8175;49.326;12.690;2023-02-12T15:16:54;12.27;;;8.37;;
16139;SDS011;8175;49.326;12.690;2023-02-12T15:19:41;10.23;;;7.00;;
16139;SDS011;8175;49.326;12.690;2023-02-12T15:27:46;7.97;;;5.57;;
16139;SDS011;8175;49.326;12.690;2023-02-12T15:30:17;8.10;;;5.83;;
16139;SDS011;8175;49.326;12.690;2023-02-12T15:32:46;7.03;;;5.30;;
16139;SDS011;8175;49.326;12.690;2023-02-12T15:35:25;7.87;;;4.77;;
16139;SDS011;8175;49.326;12.690;2023-02-12T15:37:51;6.07;;;4.50;;
16139;SDS011;8175;49.326;12.690;2023-02-12T15:40:18;5.20;;;4.63;;
16139;SDS011;8175;49.326;12.690;2023-02-12T15:42:57;6.60;;;4.60;;
16139;SDS011;8175;49.326;12.690;2023-02-12T15:45:26;6.03;;;4.47;;
16139;SDS011;8175;49.326;12.690;2023-02-12T15:47:58;8.77;;;3.97;;
16139;SDS011;8175;49.326;12.690;2023-02-12T15:50:28;5.90;;;4.10;;
16139;SDS011;8175;49.326;12.690;2023-02-12T15:52:55;5.10;;;3.87;;
16139;SDS011;8175;49.326;12.690;2023-02-12T15:55:22;5.10;;;3.90;;
16139;SDS011;8175;49.326;12.690;2023-02-12T15:57:52;7.13;;;4.23;;
16139;SDS011;8175;49.326;12.690;2023-02-12T16:00:31;4.73;;;3.73;;
16139;SDS011;8175;49.326;12.690;2023-02-12T16:03:04;7.13;;;4.77;;
16139;SDS011;8175;49.326;12.690;2023-02-12T16:05:30;5.77;;;4.07;;
16139;SDS011;8175;49.326;12.690;2023-02-12T16:07:57;6.67;;;4.80;;
16139;SDS011;8175;49.326;12.690;2023-02-12T16:10:23;6.33;;;4.20;;
16139;SDS011;8175;49.326;12.690;2023-02-12T16:12:51;5.73;;;4.27;;
16139;SDS011;8175;49.326;12.690;2023-02-12T16:15:22;5.90;;;4.93;;
16139;SDS011;8175;49.326;12.690;2023-02-12T16:17:59;4.73;;;3.93;;
16139;SDS011;8175;49.326;12.690;2023-02-12T16:20:28;8.83;;;4.63;;
16139;SDS011;8175;49.326;12.690;2023-02-12T16:22:55;7.07;;;5.00;;
16139;SDS011;8175;49.326;12.690;2023-02-12T16:25:22;7.10;;;4.50;;
16139;SDS011;8175;49.326;12.690;2023-02-12T16:28:00;9.20;;;5.43;;
16139;SDS011;8175;49.326;12.690;2023-02-12T16:32:59;8.53;;;5.57;;
16139;SDS011;8175;49.326;12.690;2023-02-12T16:35:27;6.07;;;5.27;;
16139;SDS011;8175;49.326;12.690;2023-02-12T16:43:43;7.87;;;5.47;;
16139;SDS011;8175;49.326;12.690;2023-02-12T16:46:09;9.10;;;5.37;;
16139;SDS011;8175;49.326;12.690;2023-02-12T16:48:38;9.33;;;6.77;;
16139;SDS011;8175;49.326;12.690;2023-02-12T16:51:06;8.00;;;5.40;;
16139;SDS011;8175;49.326;12.690;2023-02-12T16:53:53;6.77;;;5.10;;
16139;SDS011;8175;49.326;12.690;2023-02-12T16:56:21;8.13;;;5.77;;
16139;SDS011;8175;49.326;12.690;2023-02-12T16:58:50;6.90;;;4.77;;
16139;SDS011;8175;49.326;12.690;2023-02-12T17:01:29;5.63;;;4.00;;
16139;SDS011;8175;49.326;12.690;2023-02-12T17:03:57;5.67;;;4.40;;
16139;SDS011;8175;49.326;12.690;2023-02-12T17:06:28;5.53;;;4.20;;
16139;SDS011;8175;49.326;12.690;2023-02-12T17:08:55;6.17;;;4.10;;
16139;SDS011;8175;49.326;12.690;2023-02-12T17:11:21;6.90;;;4.93;;
16139;SDS011;8175;49.326;12.690;2023-02-12T17:13:48;5.60;;;4.80;;
16139;SDS011;8175;49.326;12.690;2023-02-12T17:16:16;7.20;;;5.43;;
16139;SDS011;8175;49.326;12.690;2023-02-12T17:18:42;6.67;;;5.27;;
16139;SDS011;8175;49.326;12.690;2023-02-12T17:23:53;7.37;;;4.30;;
16139;SDS011;8175;49.326;12.690;2023-02-12T17:26:20;6.17;;;4.37;;
16139;SDS011;8175;49.326;12.690;2023-02-12T17:28:46;5.53;;;4.10;;
16139;SDS011;8175;49.326;12.690;2023-02-12T17:31:11;3.60;;;2.80;;
16139;SDS011;8175;49.326;12.690;2023-02-12T17:33:37;5.90;;;3.80;;
16139;SDS011;8175;49.326;12.690;2023-02-12T17:36:03;5.37;;;3.63;;
16139;SDS011;8175;49.326;12.690;2023-02-12T17:38:29;5.97;;;3.97;;
16139;SDS011;8175;49.326;12.690;2023-02-12T17:40:55;7.67;;;4.87;;
16139;SDS011;8175;49.326;12.690;2023-02-12T17:43:20;11.73;;;7.67;;
16139;SDS011;8175;49.326;12.690;2023-02-12T17:45:46;9.50;;;6.60;;
16139;SDS011;8175;49.326;12.690;2023-02-12T17:48:12;12.53;;;8.80;;
16139;SDS011;8175;49.326;12.690;2023-02-12T17:50:39;8.07;;;6.50;;
16139;SDS011;8175;49.326;12.690;2023-02-12T17:53:06;9.10;;;6.53;;
16139;SDS011;8175;49.326;12.690;2023-02-12T17:55:32;8.20;;;5.97;;
16139;SDS011;8175;49.326;12.690;2023-02-12T17:58:01;12.70;;;7.73;;
16139;SDS011;8175;49.326;12.690;2023-02-12T18:00:27;11.63;;;7.57;;
16139;SDS011;8175;49.326;12.690;2023-02-12T18:02:54;9.77;;;7.63;;
16139;SDS011;8175;49.326;12.690;2023-02-12T18:05:20;12.80;;;7.70;;
16139;SDS011;8175;49.326;12.690;2023-02-12T18:07:45;8.97;;;6.63;;
16139;SDS011;8175;49.326;12.690;2023-02-12T18:10:11;13.63;;;8.53;;
16139;SDS011;8175;49.326;12.690;2023-02-12T18:12:37;11.93;;;7.63;;
16139;SDS011;8175;49.326;12.690;2023-02-12T18:15:03;12.03;;;7.60;;
16139;SDS011;8175;49.326;12.690;2023-02-12T18:17:30;12.63;;;6.80;;
16139;SDS011;8175;49.326;12.690;2023-02-12T18:19:56;8.73;;;6.77;;
16139;SDS011;8175;49.326;12.690;2023-02-12T18:22:22;11.33;;;7.40;;
16139;SDS011;8175;49.326;12.690;2023-02-12T18:24:48;9.50;;;6.07;;
16139;SDS011;8175;49.326;12.690;2023-02-12T18:27:14;9.13;;;5.50;;
16139;SDS011;8175;49.326;12.690;2023-02-12T18:29:40;11.33;;;5.97;;
16139;SDS011;8175;49.326;12.690;2023-02-12T18:32:06;5.23;;;4.60;;
16139;SDS011;8175;49.326;12.690;2023-02-12T18:34:32;5.73;;;4.30;;
16139;SDS011;8175;49.326;12.690;2023-02-12T18:36:58;6.00;;;4.30;;
16139;SDS011;8175;49.326;12.690;2023-02-12T18:39:24;7.77;;;5.43;;
16139;SDS011;8175;49.326;12.690;2023-02-12T18:41:50;6.83;;;4.50;;
16139;SDS011;8175;49.326;12.690;2023-02-12T18:44:16;3.30;;;2.67;;
16139;SDS011;8175;49.326;12.690;2023-02-12T18:46:41;3.73;;;3.10;;
16139;SDS011;8175;49.326;12.690;2023-02-12T18:49:08;4.73;;;3.37;;
16139;SDS011;8175;49.326;12.690;2023-02-12T18:51:35;4.33;;;3.13;;
16139;SDS011;8175;49.326;12.690;2023-02-12T18:54:04;3.80;;;2.50;;
16139;SDS011;8175;49.326;12.690;2023-02-12T18:56:35;8.10;;;5.77;;
16139;SDS011;8175;49.326;12.690;2023-02-12T18:59:04;10.93;;;7.27;;
16139;SDS011;8175;49.326;12.690;2023-02-12T19:01:31;8.53;;;5.67;;
16139;SDS011;8175;49.326;12.690;2023-02-12T19:03:59;4.13;;;3.20;;
16139;SDS011;8175;49.326;12.690;2023-02-12T19:06:27;4.57;;;3.77;;
16139;SDS011;8175;49.326;12.690;2023-02-12T19:08:54;4.60;;;3.00;;
16139;SDS011;8175;49.326;12.690;2023-02-12T19:11:20;5.37;;;2.80;;
16139;SDS011;8175;49.326;12.690;2023-02-12T19:13:46;4.20;;;3.73;;
16139;SDS011;8175;49.326;12.690;2023-02-12T19:16:15;3.77;;;3.40;;
16139;SDS011;8175;49.326;12.690;2023-02-12T19:18:41;5.60;;;4.03;;
16139;SDS011;8175;49.326;12.690;2023-02-12T19:21:10;4.70;;;3.00;;
16139;SDS011;8175;49.326;12.690;2023-02-12T19:23:37;5.07;;;3.03;;
16139;SDS011;8175;49.326;12.690;2023-02-12T19:26:07;3.03;;;2.43;;
16139;SDS011;8175;49.326;12.690;2023-02-12T19:28:35;2.97;;;2.67;;
16139;SDS011;8175;49.326;12.690;2023-02-12T19:31:07;5.60;;;3.10;;
16139;SDS011;8175;49.326;12.690;2023-02-12T19:33:35;5.47;;;3.10;;
16139;SDS011;8175;49.326;12.690;2023-02-12T19:36:03;3.73;;;2.80;;
16139;SDS011;8175;49.326;12.690;2023-02-12T19:38:29;3.10;;;2.40;;
16139;SDS011;8175;49.326;12.690;2023-02-12T19:41:05;3.27;;;2.57;;
16139;SDS011;8175;49.326;12.690;2023-02-12T19:43:38;3.50;;;2.67;;
16139;SDS011;8175;49.326;12.690;2023-02-12T19:46:14;3.47;;;2.30;;
16139;SDS011;8175;49.326;12.690;2023-02-12T19:48:43;2.90;;;2.33;;
16139;SDS011;8175;49.326;12.690;2023-02-12T19:51:15;3.50;;;2.20;;
16139;SDS011;8175;49.326;12.690;2023-02-12T19:53:43;2.60;;;2.40;;
16139;SDS011;8175;49.326;12.690;2023-02-12T19:56:09;2.67;;;2.47;;
16139;SDS011;8175;49.326;12.690;2023-02-12T19:58:35;2.20;;;2.00;;
16139;SDS011;8175;49.326;12.690;2023-02-12T20:01:06;2.70;;;1.70;;
16139;SDS011;8175;49.326;12.690;2023-02-12T20:03:33;2.57;;;1.77;;
16139;SDS011;8175;49.326;12.690;2023-02-12T20:06:00;2.23;;;1.93;;
16139;SDS011;8175;49.326;12.690;2023-02-12T20:08:27;3.20;;;2.07;;
16139;SDS011;8175;49.326;12.690;2023-02-12T20:10:53;3.40;;;2.60;;
16139;SDS011;8175;49.326;12.690;2023-02-12T20:13:19;3.87;;;2.70;;
16139;SDS011;8175;49.326;12.690;2023-02-12T20:15:46;3.37;;;2.13;;
16139;SDS011;8175;49.326;12.690;2023-02-12T20:18:12;2.17;;;1.83;;
16139;SDS011;8175;49.326;12.690;2023-02-12T20:20:37;3.60;;;1.70;;
16139;SDS011;8175;49.326;12.690;2023-02-12T20:23:03;2.67;;;2.10;;
16139;SDS011;8175;49.326;12.690;2023-02-12T20:25:29;1.93;;;1.50;;
16139;SDS011;8175;49.326;12.690;2023-02-12T20:27:55;1.80;;;1.50;;
16139;SDS011;8175;49.326;12.690;2023-02-12T20:30:21;2.60;;;1.70;;
16139;SDS011;8175;49.326;12.690;2023-02-12T20:32:47;3.03;;;2.20;;
16139;SDS011;8175;49.326;12.690;2023-02-12T20:35:13;2.10;;;1.87;;
16139;SDS011;8175;49.326;12.690;2023-02-12T20:37:39;1.70;;;1.60;;
16139;SDS011;8175;49.326;12.690;2023-02-12T20:40:05;1.57;;;1.47;;
16139;SDS011;8175;49.326;12.690;2023-02-12T20:42:31;1.90;;;1.70;;
16139;SDS011;8175;49.326;12.690;2023-02-12T20:44:57;2.07;;;1.67;;
16139;SDS011;8175;49.326;12.690;2023-02-12T20:47:23;2.23;;;2.00;;
16139;SDS011;8175;49.326;12.690;2023-02-12T20:49:53;3.50;;;2.90;;
16139;SDS011;8175;49.326;12.690;2023-02-12T20:52:19;3.33;;;2.60;;
16139;SDS011;8175;49.326;12.690;2023-02-12T20:54:45;2.03;;;1.63;;
16139;SDS011;8175;49.326;12.690;2023-02-12T20:57:11;3.30;;;2.60;;
16139;SDS011;8175;49.326;12.690;2023-02-12T20:59:37;3.33;;;2.70;;
16139;SDS011;8175;49.326;12.690;2023-02-12T21:02:03;2.87;;;2.57;;
16139;SDS011;8175;49.326;12.690;2023-02-12T21:04:29;3.40;;;2.37;;
16139;SDS011;8175;49.326;12.690;2023-02-12T21:06:54;4.77;;;4.03;;
16139;SDS011;8175;49.326;12.690;2023-02-12T21:09:20;2.90;;;2.53;;
16139;SDS011;8175;49.326;12.690;2023-02-12T21:11:45;3.43;;;2.80;;
16139;SDS011;8175;49.326;12.690;2023-02-12T21:14:12;4.43;;;2.93;;
16139;SDS011;8175;49.326;12.690;2023-02-12T21:16:39;3.30;;;3.00;;
16139;SDS011;8175;49.326;12.690;2023-02-12T21:19:05;2.80;;;2.17;;
16139;SDS011;8175;49.326;12.690;2023-02-12T21:21:33;1.90;;;1.70;;
16139;SDS011;8175;49.326;12.690;2023-02-12T21:24:01;2.53;;;2.27;;
16139;SDS011;8175;49.326;12.690;2023-02-12T21:26:30;2.07;;;1.87;;
16139;SDS011;8175;49.326;12.690;2023-02-12T21:28:57;2.33;;;2.10;;
16139;SDS011;8175;49.326;12.690;2023-02-12T21:31:26;4.57;;;2.90;;
16139;SDS011;8175;49.326;12.690;2023-02-12T21:33:54;2.53;;;2.07;;
16139;SDS011;8175;49.326;12.690;2023-02-12T21:36:25;2.77;;;2.37;;
16139;SDS011;8175;49.326;12.690;2023-02-12T21:38:53;2.90;;;1.97;;
16139;SDS011;8175;49.326;12.690;2023-02-12T21:43:54;2.27;;;1.93;;
16139;SDS011;8175;49.326;12.690;2023-02-12T21:46:25;1.90;;;1.80;;
16139;SDS011;8175;49.326;12.690;2023-02-12T21:48:52;6.63;;;3.73;;
16139;SDS011;8175;49.326;12.690;2023-02-12T21:51:19;5.87;;;4.03;;
16139;SDS011;8175;49.326;12.690;2023-02-12T21:54:03;6.70;;;3.90;;
16139;SDS011;8175;49.326;12.690;2023-02-12T21:56:31;5.47;;;2.83;;
16139;SDS011;8175;49.326;12.690;2023-02-12T21:58:57;4.20;;;2.50;;
16139;SDS011;8175;49.326;12.690;2023-02-12T22:01:24;4.10;;;2.70;;
16139;SDS011;8175;49.326;12.690;2023-02-12T22:03:56;5.67;;;3.23;;
16139;SDS011;8175;49.326;12.690;2023-02-12T22:06:22;3.93;;;3.00;;
16139;SDS011;8175;49.326;12.690;2023-02-12T22:08:49;5.77;;;4.20;;
16139;SDS011;8175;49.326;12.690;2023-02-12T22:11:19;2.60;;;1.93;;
16139;SDS011;8175;49.326;12.690;2023-02-12T22:13:46;2.43;;;2.07;;
16139;SDS011;8175;49.326;12.690;2023-02-12T22:16:13;3.33;;;2.53;;
16139;SDS011;8175;49.326;12.690;2023-02-12T22:18:44;4.70;;;3.20;;
16139;SDS011;8175;49.326;12.690;2023-02-12T22:21:11;4.60;;;2.97;;
16139;SDS011;8175;49.326;12.690;2023-02-12T22:23:38;3.07;;;2.30;;
16139;SDS011;8175;49.326;12.690;2023-02-12T22:28:47;5.53;;;2.90;;
16139;SDS011;8175;49.326;12.690;2023-02-12T22:31:16;3.27;;;2.90;;
16139;SDS011;8175;49.326;12.690;2023-02-12T22:33:46;4.53;;;3.10;;
16139;SDS011;8175;49.326;12.690;2023-02-12T22:36:13;3.93;;;3.40;;
16139;SDS011;8175;49.326;12.690;2023-02-12T22:38:39;4.30;;;3.67;;
16139;SDS011;8175;49.326;12.690;2023-02-12T22:41:05;5.33;;;3.13;;
16139;SDS011;8175;49.326;12.690;2023-02-12T22:43:33;5.17;;;3.63;;
16139;SDS011;8175;49.326;12.690;2023-02-12T22:46:00;4.57;;;3.40;;
16139;SDS011;8175;49.326;12.690;2023-02-12T22:48:26;3.70;;;3.30;;
16139;SDS011;8175;49.326;12.690;2023-02-12T22:50:52;6.17;;;3.93;;
16139;SDS011;8175;49.326;12.690;2023-02-12T22:53:18;4.00;;;2.80;;
16139;SDS011;8175;49.326;12.690;2023-02-12T22:55:44;4.10;;;3.60;;
16139;SDS011;8175;49.326;12.690;2023-02-12T22:58:09;7.00;;;3.90;;
16139;SDS011;8175;49.326;12.690;2023-02-12T23:00:35;4.37;;;3.33;;
16139;SDS011;8175;49.326;12.690;2023-02-12T23:03:02;4.20;;;2.70;;
16139;SDS011;8175;49.326;12.690;2023-02-12T23:05:27;3.63;;;2.80;;
16139;SDS011;8175;49.326;12.690;2023-02-12T23:07:53;6.10;;;3.27;;
16139;SDS011;8175;49.326;12.690;2023-02-12T23:10:19;3.63;;;3.03;;
16139;SDS011;8175;49.326;12.690;2023-02-12T23:12:45;3.53;;;2.83;;
16139;SDS011;8175;49.326;12.690;2023-02-12T23:15:10;4.80;;;3.67;;
16139;SDS011;8175;49.326;12.690;2023-02-12T23:17:36;4.13;;;2.90;;
16139;SDS011;8175;49.326;12.690;2023-02-12T23:20:02;5.70;;;3.53;;
16139;SDS011;8175;49.326;12.690;2023-02-12T23:22:28;3.80;;;2.93;;
16139;SDS011;8175;49.326;12.690;2023-02-12T23:24:53;3.23;;;2.50;;
16139;SDS011;8175;49.326;12.690;2023-02-12T23:27:19;4.27;;;2.87;;
16139;SDS011;8175;49.326;12.690;2023-02-12T23:29:44;4.17;;;3.17;;
16139;SDS011;8175;49.326;12.690;2023-02-12T23:32:10;3.77;;;2.70;;
16139;SDS011;8175;49.326;12.690;2023-02-12T23:34:36;4.17;;;3.13;;
16139;SDS011;8175;49.326;12.690;2023-02-12T23:37:01;6.67;;;4.63;;
16139;SDS011;8175;49.326;12.690;2023-02-12T23:39:27;5.37;;;3.93;;
16139;SDS011;8175;49.326;12.690;2023-02-12T23:41:53;6.37;;;4.40;;
16139;SDS011;8175;49.326;12.690;2023-02-12T23:44:18;6.90;;;4.43;;
16139;SDS011;8175;49.326;12.690;2023-02-12T23:46:44;4.90;;;3.80;;
16139;SDS011;8175;49.326;12.690;2023-02-12T23:49:11;11.00;;;5.87;;
16139;SDS011;8175;49.326;12.690;2023-02-12T23:51:37;12.37;;;8.07;;
16139;SDS011;8175;49.326;12.690;2023-02-12T23:54:02;13.00;;;7.27;;
16139;SDS011;8175;49.326;12.690;2023-02-12T23:56:28;8.60;;;6.20;;
16139;SDS011;8175;49.326;12.690;2023-02-12T23:58:54;9.57;;;6.70;;
